createdAt,value
2022-09-17T00:01:31.572Z,8.60
2022-09-17T00:04:02.179Z,10.35
2022-09-17T00:06:30.902Z,11.32
2022-09-17T00:09:00.313Z,7.45
2022-09-17T00:11:30.135Z,8.70
2022-09-17T00:14:00.606Z,8.82
2022-09-17T00:16:31.484Z,7.32
2022-09-17T00:19:00.451Z,7.45
2022-09-17T00:21:28.565Z,7.25
2022-09-17T00:23:58.034Z,7.60
2022-09-17T00:26:28.573Z,6.93
2022-09-17T00:28:57.877Z,7.72
2022-09-17T00:31:26.786Z,7.20
2022-09-17T00:33:55.563Z,5.72
2022-09-17T00:36:24.249Z,6.22
2022-09-17T00:38:52.788Z,6.18
2022-09-17T00:41:21.728Z,7.38
2022-09-17T00:43:53.989Z,6.28
2022-09-17T00:46:27.617Z,5.82
2022-09-17T00:48:56.661Z,6.63
2022-09-17T00:51:29.649Z,6.63
2022-09-17T00:53:57.998Z,5.38
2022-09-17T00:56:29.287Z,7.13
2022-09-17T00:58:59.093Z,6.50
2022-09-17T01:01:27.575Z,6.07
2022-09-17T01:03:55.729Z,7.03
2022-09-17T01:06:28.794Z,6.97
2022-09-17T01:09:11.860Z,6.47
2022-09-17T01:11:54.773Z,6.10
2022-09-17T01:14:36.169Z,8.68
2022-09-17T01:17:11.598Z,6.70
2022-09-17T01:19:58.148Z,7.32
2022-09-17T01:22:31.187Z,7.22
2022-09-17T01:25:23.161Z,6.53
2022-09-17T01:28:32.887Z,9.20
2022-09-17T01:31:14.683Z,9.10
2022-09-17T01:33:49.633Z,7.32
2022-09-17T01:36:23.939Z,8.23
2022-09-17T01:38:56.194Z,9.63
2022-09-17T01:41:34.250Z,9.50
2022-09-17T01:44:05.741Z,8.52
2022-09-17T01:46:38.846Z,8.50
2022-09-17T01:49:07.627Z,7.78
2022-09-17T01:51:39.511Z,7.53
2022-09-17T01:54:12.302Z,7.63
2022-09-17T01:56:43.750Z,6.80
2022-09-17T01:59:17.730Z,7.18
2022-09-17T02:01:49.623Z,6.35
2022-09-17T02:04:21.974Z,6.20
2022-09-17T02:06:54.380Z,6.60
2022-09-17T02:09:25.556Z,5.78
2022-09-17T02:14:30.255Z,6.50
2022-09-17T02:17:04.950Z,5.57
2022-09-17T02:19:37.491Z,4.78
2022-09-17T02:22:15.663Z,8.73
2022-09-17T02:24:47.384Z,7.97
2022-09-17T02:27:20.818Z,6.20
2022-09-17T02:29:49.280Z,8.27
2022-09-17T02:32:19.124Z,8.50
2022-09-17T02:34:47.650Z,8.38
2022-09-17T02:37:16.031Z,9.93
2022-09-17T02:39:44.773Z,9.38
2022-09-17T02:42:23.720Z,8.93
2022-09-17T02:45:01.076Z,8.45
2022-09-17T02:47:50.513Z,8.60
2022-09-17T02:50:42.092Z,6.20
2022-09-17T02:53:26.380Z,7.45
2022-09-17T02:56:02.380Z,6.22
2022-09-17T02:58:35.303Z,8.95
2022-09-17T03:01:07.071Z,9.70
2022-09-17T03:03:40.098Z,9.52
2022-09-17T03:06:08.569Z,8.98
2022-09-17T03:08:40.359Z,11.30
2022-09-17T03:11:09.476Z,9.55
2022-09-17T03:13:38.308Z,8.10
2022-09-17T03:16:06.915Z,8.30
2022-09-17T03:18:36.560Z,8.45
2022-09-17T03:21:05.063Z,11.13
2022-09-17T03:23:34.123Z,10.15
2022-09-17T03:26:02.437Z,12.70
2022-09-17T03:28:30.864Z,11.35
2022-09-17T03:30:59.146Z,9.80
2022-09-17T03:33:27.517Z,8.63
2022-09-17T03:35:57.224Z,9.55
2022-09-17T03:38:25.596Z,9.82
2022-09-17T03:41:00.868Z,9.38
2022-09-17T03:43:29.606Z,7.78
2022-09-17T03:45:57.822Z,9.57
2022-09-17T03:48:25.896Z,9.07
2022-09-17T03:50:54.357Z,10.10
2022-09-17T03:53:23.944Z,12.88
2022-09-17T03:55:52.246Z,9.43
2022-09-17T03:58:20.698Z,7.43
2022-09-17T04:00:53.250Z,10.18
2022-09-17T04:03:22.737Z,7.63
2022-09-17T04:05:51.191Z,11.50
2022-09-17T04:08:19.561Z,12.07
2022-09-17T04:10:50.653Z,11.32
2022-09-17T04:13:18.911Z,8.13
2022-09-17T04:15:47.748Z,9.20
2022-09-17T04:18:16.712Z,8.63
2022-09-17T04:20:44.991Z,7.00
2022-09-17T04:23:13.646Z,9.20
2022-09-17T04:25:42.152Z,12.05
2022-09-17T04:28:11.924Z,10.88
2022-09-17T04:30:41.512Z,10.85
2022-09-17T04:33:10.053Z,12.57
2022-09-17T04:35:38.326Z,10.55
2022-09-17T04:38:06.605Z,12.20
2022-09-17T04:40:35.224Z,11.00
2022-09-17T04:43:04.303Z,11.18
2022-09-17T04:45:33.839Z,11.95
2022-09-17T04:48:03.004Z,13.98
2022-09-17T04:50:31.438Z,10.27
2022-09-17T04:52:59.570Z,9.50
2022-09-17T04:55:28.086Z,10.43
2022-09-17T04:57:57.003Z,9.82
2022-09-17T05:00:25.570Z,8.13
2022-09-17T05:02:56.801Z,9.13
2022-09-17T05:05:25.968Z,6.97
2022-09-17T05:07:54.492Z,8.20
2022-09-17T05:10:24.451Z,6.22
2022-09-17T05:12:53.797Z,6.82
2022-09-17T05:15:23.129Z,8.38
2022-09-17T05:17:51.557Z,8.95
2022-09-17T05:20:21.337Z,8.20
2022-09-17T05:22:51.457Z,8.43
2022-09-17T05:25:24.246Z,8.32
2022-09-17T05:27:54.198Z,10.63
2022-09-17T05:30:22.540Z,8.88
2022-09-17T05:32:50.790Z,8.68
2022-09-17T05:35:19.286Z,8.48
2022-09-17T05:37:48.980Z,8.70
2022-09-17T05:40:17.517Z,7.15
2022-09-17T05:42:46.191Z,9.30
2022-09-17T05:45:14.587Z,7.43
2022-09-17T05:47:42.844Z,6.82
2022-09-17T05:50:11.259Z,6.85
2022-09-17T05:52:39.739Z,6.40
2022-09-17T05:55:10.041Z,9.02
2022-09-17T05:57:38.628Z,5.40
2022-09-17T06:00:07.987Z,7.18
2022-09-17T06:02:36.468Z,6.80
2022-09-17T06:05:05.348Z,5.35
2022-09-17T06:07:34.033Z,5.97
2022-09-17T06:10:02.360Z,5.88
2022-09-17T06:12:32.469Z,6.22
2022-09-17T06:15:03.625Z,3.95
2022-09-17T06:17:34.442Z,5.85
2022-09-17T06:20:03.060Z,5.93
2022-09-17T06:22:32.191Z,7.82
2022-09-17T06:25:02.435Z,4.78
2022-09-17T06:27:33.949Z,4.65
2022-09-17T06:30:02.585Z,4.43
2022-09-17T06:32:30.871Z,4.95
2022-09-17T06:34:59.143Z,4.10
2022-09-17T06:37:29.586Z,5.30
2022-09-17T06:39:59.395Z,4.95
2022-09-17T06:42:28.686Z,5.15
2022-09-17T06:44:59.814Z,5.68
2022-09-17T06:47:29.160Z,5.43
2022-09-17T06:49:59.971Z,3.47
2022-09-17T06:52:28.138Z,4.93
2022-09-17T06:54:56.693Z,6.10
2022-09-17T06:57:24.877Z,3.72
2022-09-17T06:59:52.965Z,4.65
2022-09-17T07:02:22.437Z,6.30
2022-09-17T07:04:50.719Z,6.00
2022-09-17T07:07:19.055Z,5.28
2022-09-17T07:09:47.132Z,4.45
2022-09-17T07:12:16.009Z,5.75
2022-09-17T07:14:44.003Z,4.57
2022-09-17T07:17:12.298Z,4.40
2022-09-17T07:19:41.837Z,3.38
2022-09-17T07:22:09.955Z,3.70
2022-09-17T07:24:41.161Z,4.65
2022-09-17T07:27:09.480Z,3.65
2022-09-17T07:29:37.517Z,3.25
2022-09-17T07:32:05.806Z,2.90
2022-09-17T07:34:34.133Z,4.30
2022-09-17T07:37:04.079Z,5.75
2022-09-17T07:39:32.064Z,5.25
2022-09-17T07:42:00.277Z,3.78
2022-09-17T07:44:28.827Z,5.07
2022-09-17T07:46:56.873Z,3.00
2022-09-17T07:49:25.348Z,3.30
2022-09-17T07:51:54.877Z,6.82
2022-09-17T07:54:25.434Z,4.70
2022-09-17T07:56:53.619Z,4.32
2022-09-17T07:59:22.220Z,2.55
2022-09-17T08:01:50.316Z,3.65
2022-09-17T08:04:18.656Z,2.55
2022-09-17T08:06:48.476Z,2.42
2022-09-17T08:09:18.102Z,2.22
2022-09-17T08:11:56.657Z,5.03
2022-09-17T08:14:29.493Z,3.80
2022-09-17T08:16:58.604Z,4.20
2022-09-17T08:19:29.909Z,1.77
2022-09-17T08:21:58.445Z,2.70
2022-09-17T08:24:27.731Z,2.95
2022-09-17T08:26:57.142Z,2.22
2022-09-17T08:29:25.320Z,4.45
2022-09-17T08:31:53.588Z,5.43
2022-09-17T08:34:21.793Z,2.47
2022-09-17T08:36:49.843Z,4.20
2022-09-17T08:39:18.326Z,3.03
2022-09-17T08:41:59.500Z,1.98
2022-09-17T08:44:33.340Z,3.83
2022-09-17T08:47:06.165Z,1.92
2022-09-17T08:49:36.617Z,1.90
2022-09-17T08:52:36.579Z,4.00
2022-09-17T08:55:10.741Z,3.28
2022-09-17T08:57:45.061Z,2.53
2022-09-17T09:00:16.219Z,2.13
2022-09-17T09:03:01.423Z,1.90
2022-09-17T09:05:33.346Z,2.08
2022-09-17T09:08:05.818Z,1.70
2022-09-17T09:10:38.041Z,2.10
2022-09-17T09:13:07.498Z,3.72
2022-09-17T09:15:39.574Z,3.42
2022-09-17T09:18:20.240Z,2.58
2022-09-17T09:20:51.830Z,2.70
2022-09-17T09:23:22.216Z,1.65
2022-09-17T09:25:56.476Z,1.92
2022-09-17T09:28:36.370Z,2.03
2022-09-17T09:31:17.140Z,2.42
2022-09-17T09:33:47.932Z,1.48
2022-09-17T09:36:21.952Z,2.63
2022-09-17T09:38:55.833Z,4.47
2022-09-17T09:41:28.757Z,3.15
2022-09-17T09:44:04.673Z,2.03
2022-09-17T09:47:08.656Z,2.78
2022-09-17T09:49:55.364Z,2.33
2022-09-17T09:52:34.560Z,1.33
2022-09-17T09:55:17.034Z,4.13
2022-09-17T09:57:47.965Z,2.95
2022-09-17T10:00:33.106Z,4.65
2022-09-17T10:03:05.446Z,2.15
2022-09-17T10:05:33.612Z,2.63
2022-09-17T10:08:02.030Z,3.17
2022-09-17T10:10:30.259Z,2.65
2022-09-17T10:13:08.559Z,5.75
2022-09-17T10:15:38.632Z,4.65
2022-09-17T10:18:16.307Z,3.13
2022-09-17T10:20:52.568Z,4.28
2022-09-17T10:23:21.167Z,3.55
2022-09-17T10:25:52.217Z,2.35
2022-09-17T10:28:34.163Z,4.05
2022-09-17T10:31:09.016Z,3.10
2022-09-17T10:33:40.801Z,2.50
2022-09-17T10:36:11.263Z,3.85
2022-09-17T10:38:40.787Z,3.00
2022-09-17T10:41:17.948Z,2.47
2022-09-17T10:43:46.997Z,3.00
2022-09-17T10:46:26.650Z,3.40
2022-09-17T10:49:00.548Z,3.00
2022-09-17T10:51:29.305Z,3.90
2022-09-17T10:54:32.964Z,4.18
2022-09-17T10:57:01.974Z,2.85
2022-09-17T11:00:00.598Z,3.42
2022-09-17T11:02:56.313Z,4.50
2022-09-17T11:05:42.916Z,3.65
2022-09-17T11:08:14.801Z,3.90
2022-09-17T11:10:47.037Z,3.08
2022-09-17T11:13:23.776Z,4.53
2022-09-17T11:16:06.506Z,4.47
2022-09-17T11:18:41.589Z,3.30
2022-09-17T11:21:28.576Z,3.05
2022-09-17T11:24:46.800Z,5.15
2022-09-17T11:27:22.908Z,7.10
2022-09-17T11:30:03.255Z,3.80
2022-09-17T11:32:44.314Z,4.07
2022-09-17T11:35:17.602Z,3.53
2022-09-17T11:37:51.614Z,3.10
2022-09-17T11:40:23.905Z,3.03
2022-09-17T11:42:55.572Z,2.80
2022-09-17T11:47:57.526Z,3.05
2022-09-17T11:50:29.538Z,3.72
2022-09-17T11:53:04.766Z,3.75
2022-09-17T11:55:37.030Z,5.20
2022-09-17T11:58:16.276Z,6.00
2022-09-17T12:00:49.022Z,3.75
2022-09-17T12:03:20.631Z,4.47
2022-09-17T12:05:53.414Z,5.13
2022-09-17T12:08:24.326Z,8.00
2022-09-17T12:10:55.303Z,6.00
2022-09-17T12:13:31.675Z,3.15
2022-09-17T12:16:11.900Z,4.65
2022-09-17T12:18:49.541Z,6.70
2022-09-17T12:21:22.126Z,4.22
2022-09-17T12:23:52.530Z,4.97
2022-09-17T12:26:29.685Z,4.70
2022-09-17T12:29:04.906Z,4.75
2022-09-17T12:31:37.735Z,4.32
2022-09-17T12:34:21.480Z,3.03
2022-09-17T12:36:53.967Z,3.75
2022-09-17T12:39:38.589Z,5.30
2022-09-17T12:42:16.621Z,4.22
2022-09-17T12:45:00.983Z,3.15
2022-09-17T12:47:50.551Z,5.18
2022-09-17T12:50:21.607Z,3.38
2022-09-17T12:55:37.328Z,3.28
2022-09-17T12:58:12.659Z,5.10
2022-09-17T13:00:43.397Z,3.03
2022-09-17T13:03:18.398Z,3.55
2022-09-17T13:06:09.260Z,3.88
2022-09-17T13:09:16.569Z,3.45
2022-09-17T13:12:08.483Z,3.70
2022-09-17T13:14:59.303Z,3.45
2022-09-17T13:17:32.180Z,4.60
2022-09-17T13:20:05.127Z,3.47
2022-09-17T13:22:34.883Z,6.55
2022-09-17T13:25:07.331Z,3.60
2022-09-17T13:27:38.351Z,5.22
2022-09-17T13:30:08.330Z,3.40
2022-09-17T13:33:01.505Z,2.42
2022-09-17T13:35:50.514Z,4.55
2022-09-17T13:38:23.204Z,2.58
2022-09-17T13:41:20.389Z,3.00
2022-09-17T13:43:48.964Z,4.43
2022-09-17T13:46:22.870Z,3.95
2022-09-17T13:48:57.189Z,2.53
2022-09-17T13:51:50.443Z,4.18
2022-09-17T13:54:20.592Z,2.60
2022-09-17T13:56:54.647Z,5.53
2022-09-17T13:59:24.956Z,2.83
2022-09-17T14:02:00.656Z,3.80
2022-09-17T14:04:51.399Z,3.10
2022-09-17T14:07:33.432Z,3.75
2022-09-17T14:10:01.878Z,4.35
2022-09-17T14:12:58.363Z,4.68
2022-09-17T14:15:55.280Z,3.38
2022-09-17T14:18:37.884Z,3.90
2022-09-17T14:21:08.534Z,3.63
2022-09-17T14:23:44.107Z,4.32
2022-09-17T14:26:19.387Z,2.90
2022-09-17T14:28:55.434Z,4.95
2022-09-17T14:31:36.150Z,4.28
2022-09-17T14:34:06.383Z,3.60
2022-09-17T14:36:36.903Z,4.63
2022-09-17T14:39:06.508Z,4.72
2022-09-17T14:41:36.637Z,4.28
2022-09-17T14:44:09.254Z,3.58
2022-09-17T14:46:39.880Z,3.38
2022-09-17T14:49:22.793Z,3.17
2022-09-17T14:51:51.225Z,3.83
2022-09-17T14:54:24.979Z,5.32
2022-09-17T14:57:01.472Z,3.70
2022-09-17T14:59:45.464Z,4.93
2022-09-17T15:02:28.587Z,4.70
2022-09-17T15:04:57.104Z,3.58
2022-09-17T15:07:25.964Z,4.47
2022-09-17T15:09:55.579Z,3.83
2022-09-17T15:12:27.071Z,6.38
2022-09-17T15:14:57.857Z,6.32
2022-09-17T15:17:26.070Z,6.55
2022-09-17T15:19:56.902Z,5.85
2022-09-17T15:22:29.007Z,5.90
2022-09-17T15:24:59.286Z,6.07
2022-09-17T15:27:30.820Z,5.50
2022-09-17T15:30:02.846Z,7.03
2022-09-17T15:32:32.451Z,5.43
2022-09-17T15:35:20.823Z,7.65
2022-09-17T15:38:11.979Z,6.35
2022-09-17T15:40:41.143Z,5.50
2022-09-17T15:43:18.293Z,6.57
2022-09-17T15:45:47.865Z,6.68
2022-09-17T15:48:25.306Z,5.35
2022-09-17T15:50:54.917Z,5.75
2022-09-17T15:53:24.422Z,7.18
2022-09-17T15:56:07.517Z,7.80
2022-09-17T15:58:39.096Z,8.85
2022-09-17T16:04:18.055Z,10.25
2022-09-17T16:06:50.856Z,9.13
2022-09-17T16:09:42.335Z,8.30
2022-09-17T16:12:13.175Z,8.70
2022-09-17T16:14:47.794Z,10.50
2022-09-17T16:17:33.160Z,9.60
2022-09-17T16:20:09.005Z,9.75
2022-09-17T16:22:37.072Z,13.48
2022-09-17T16:25:06.426Z,37.85
2022-09-17T16:27:44.882Z,25.25
2022-09-17T16:30:16.463Z,31.48
2022-09-17T16:32:44.753Z,37.10
2022-09-17T16:35:17.397Z,42.47
2022-09-17T16:37:48.739Z,30.25
2022-09-17T16:40:17.519Z,30.05
2022-09-17T16:42:45.801Z,47.70
2022-09-17T16:45:14.648Z,62.75
2022-09-17T16:47:43.301Z,56.15
2022-09-17T16:50:13.110Z,44.75
2022-09-17T16:52:43.126Z,24.85
2022-09-17T16:55:11.737Z,16.73
2022-09-17T16:57:39.769Z,12.32
2022-09-17T17:00:11.969Z,10.43
2022-09-17T17:02:40.051Z,9.82
2022-09-17T17:05:10.649Z,10.82
2022-09-17T17:07:38.869Z,13.93
2022-09-17T17:10:10.070Z,12.82
2022-09-17T17:12:38.725Z,12.23
2022-09-17T17:15:07.705Z,13.02
2022-09-17T17:17:36.518Z,14.43
2022-09-17T17:20:06.179Z,13.88
2022-09-17T17:22:34.310Z,13.77
2022-09-17T17:25:02.306Z,13.50
2022-09-17T17:27:32.017Z,14.05
2022-09-17T17:30:01.683Z,16.40
2022-09-17T17:32:29.821Z,13.35
2022-09-17T17:34:58.308Z,14.30
2022-09-17T17:37:26.867Z,13.35
2022-09-17T17:39:55.212Z,12.30
2022-09-17T17:42:23.703Z,11.18
2022-09-17T17:44:55.677Z,9.90
2022-09-17T17:47:23.850Z,11.32
2022-09-17T17:49:52.215Z,10.65
2022-09-17T17:52:20.366Z,11.10
2022-09-17T17:54:48.735Z,10.20
2022-09-17T17:57:17.082Z,12.00
2022-09-17T17:59:45.309Z,8.90
2022-09-17T18:02:15.025Z,9.80
2022-09-17T18:04:43.421Z,8.98
2022-09-17T18:07:11.482Z,8.88
2022-09-17T18:09:39.989Z,9.45
2022-09-17T18:12:09.278Z,9.98
2022-09-17T18:14:37.379Z,8.50
2022-09-17T18:17:05.890Z,10.60
2022-09-17T18:19:35.565Z,10.35
2022-09-17T18:22:04.489Z,9.43
2022-09-17T18:24:32.842Z,8.55
2022-09-17T18:27:01.178Z,8.40
2022-09-17T18:29:29.884Z,8.05
2022-09-17T18:31:57.932Z,6.15
2022-09-17T18:34:26.272Z,8.10
2022-09-17T18:36:55.723Z,5.80
2022-09-17T18:42:12.257Z,6.85
2022-09-17T18:44:40.538Z,5.65
2022-09-17T18:47:08.884Z,5.57
2022-09-17T18:49:37.533Z,6.20
2022-09-17T18:52:07.656Z,6.53
2022-09-17T18:54:35.781Z,5.00
2022-09-17T18:57:04.177Z,4.70
2022-09-17T18:59:32.895Z,5.88
2022-09-17T19:02:01.102Z,6.20
2022-09-17T19:04:30.143Z,5.40
2022-09-17T19:06:58.883Z,6.35
2022-09-17T19:09:28.417Z,5.97
2022-09-17T19:11:56.691Z,5.60
2022-09-17T19:14:24.976Z,5.65
2022-09-17T19:16:55.274Z,4.55
2022-09-17T19:19:23.912Z,4.83
2022-09-17T19:21:52.198Z,4.90
2022-09-17T19:24:20.525Z,5.25
2022-09-17T19:26:51.068Z,5.40
2022-09-17T19:29:19.463Z,5.70
2022-09-17T19:31:47.632Z,6.38
2022-09-17T19:34:17.211Z,5.95
2022-09-17T19:36:46.044Z,8.07
2022-09-17T19:39:14.322Z,6.07
2022-09-17T19:41:42.959Z,8.70
2022-09-17T19:44:12.892Z,6.00
2022-09-17T19:46:41.779Z,6.18
2022-09-17T19:49:11.267Z,5.78
2022-09-17T19:51:39.829Z,6.47
2022-09-17T19:54:09.695Z,7.20
2022-09-17T19:56:38.662Z,5.35
2022-09-17T19:59:06.933Z,5.68
2022-09-17T20:01:36.632Z,4.40
2022-09-17T20:04:05.382Z,4.45
2022-09-17T20:06:34.828Z,4.97
2022-09-17T20:09:03.417Z,3.45
2022-09-17T20:11:32.183Z,3.80
2022-09-17T20:14:03.796Z,5.60
2022-09-17T20:16:32.319Z,3.35
2022-09-17T20:19:02.189Z,3.92
2022-09-17T20:21:31.576Z,4.38
2022-09-17T20:24:01.191Z,3.83
2022-09-17T20:26:29.501Z,3.00
2022-09-17T20:28:57.877Z,2.80
2022-09-17T20:31:28.222Z,3.00
2022-09-17T20:33:57.730Z,3.90
2022-09-17T20:36:29.014Z,2.88
2022-09-17T20:41:41.732Z,2.90
2022-09-17T20:44:10.246Z,3.15
2022-09-17T20:46:38.629Z,3.92
2022-09-17T20:49:07.341Z,4.30
2022-09-17T20:51:37.650Z,3.42
2022-09-17T20:54:07.629Z,3.97
2022-09-17T20:56:37.015Z,2.25
2022-09-17T20:59:14.386Z,1.83
2022-09-17T21:01:44.982Z,3.00
2022-09-17T21:04:15.471Z,2.70
2022-09-17T21:06:45.436Z,3.20
2022-09-17T21:09:16.156Z,3.63
2022-09-17T21:11:45.241Z,1.85
2022-09-17T21:14:15.348Z,3.17
2022-09-17T21:16:43.511Z,3.20
2022-09-17T21:19:13.427Z,2.65
2022-09-17T21:21:41.501Z,4.80
2022-09-17T21:24:11.211Z,2.88
2022-09-17T21:26:39.461Z,3.50
2022-09-17T21:29:07.910Z,3.13
2022-09-17T21:31:37.940Z,3.55
2022-09-17T21:34:07.773Z,3.63
2022-09-17T21:36:37.402Z,3.75
2022-09-17T21:39:07.082Z,3.20
2022-09-17T21:41:42.136Z,3.22
2022-09-17T21:44:11.128Z,3.72
2022-09-17T21:46:40.392Z,3.40
2022-09-17T21:49:08.748Z,4.75
2022-09-17T21:51:38.427Z,2.88
2022-09-17T21:54:07.906Z,5.75
2022-09-17T21:56:37.898Z,1.83
2022-09-17T21:59:08.016Z,4.38
2022-09-17T22:01:40.570Z,3.72
2022-09-17T22:04:10.065Z,4.57
2022-09-17T22:06:38.738Z,7.22
2022-09-17T22:09:08.554Z,2.83
2022-09-17T22:11:38.824Z,6.00
2022-09-17T22:14:10.948Z,3.80
2022-09-17T22:16:40.734Z,4.85
2022-09-17T22:19:09.732Z,4.30
2022-09-17T22:21:40.121Z,2.45
2022-09-17T22:24:08.648Z,2.72
2022-09-17T22:26:41.528Z,2.75
2022-09-17T22:29:12.744Z,3.47
2022-09-17T22:31:41.504Z,3.85
2022-09-17T22:34:10.550Z,6.03
2022-09-17T22:36:39.051Z,4.25
2022-09-17T22:39:07.960Z,4.13
2022-09-17T22:41:42.937Z,5.03
2022-09-17T22:44:13.582Z,2.92
2022-09-17T22:46:42.324Z,4.20
2022-09-17T22:49:11.736Z,2.30
2022-09-17T22:51:41.118Z,4.63
2022-09-17T22:54:11.723Z,4.60
2022-09-17T22:56:43.453Z,4.38
2022-09-17T22:59:11.985Z,3.90
2022-09-17T23:01:40.778Z,3.83
2022-09-17T23:04:09.275Z,5.88
2022-09-17T23:06:39.606Z,4.68
2022-09-17T23:09:07.987Z,4.00
2022-09-17T23:11:38.205Z,5.72
2022-09-17T23:14:09.694Z,6.57
2022-09-17T23:16:40.272Z,8.18
2022-09-17T23:19:10.598Z,3.78
2022-09-17T23:21:39.165Z,4.20
2022-09-17T23:24:07.717Z,5.53
2022-09-17T23:26:35.802Z,6.28
2022-09-17T23:29:05.558Z,5.00
2022-09-17T23:31:35.887Z,6.05
2022-09-17T23:34:05.321Z,5.40
2022-09-17T23:36:36.064Z,5.13
2022-09-17T23:39:05.368Z,3.97
2022-09-17T23:41:34.890Z,6.45
2022-09-17T23:44:05.410Z,5.57
2022-09-17T23:46:36.041Z,6.67
2022-09-17T23:49:05.246Z,7.13
2022-09-17T23:51:35.928Z,7.90
2022-09-17T23:54:05.305Z,5.85
2022-09-17T23:56:34.080Z,5.65
2022-09-17T23:59:02.693Z,5.43
